sensor_id;sensor_type;location;lat;lon;timestamp;P1;durP1;ratioP1;P2;durP2;ratioP2
72235;SDS011;60146;52.498;13.462;2023-01-04T00:01:44;11.87;;;5.60;;
72235;SDS011;60146;52.498;13.462;2023-01-04T00:04:09;11.93;;;5.20;;
72235;SDS011;60146;52.498;13.462;2023-01-04T00:06:35;12.87;;;5.50;;
72235;SDS011;60146;52.498;13.462;2023-01-04T00:09:00;13.13;;;5.23;;
72235;SDS011;60146;52.498;13.462;2023-01-04T00:11:26;16.13;;;4.97;;
72235;SDS011;60146;52.498;13.462;2023-01-04T00:13:55;11.30;;;5.10;;
72235;SDS011;60146;52.498;13.462;2023-01-04T00:16:21;17.50;;;5.80;;
72235;SDS011;60146;52.498;13.462;2023-01-04T00:18:47;12.07;;;5.17;;
72235;SDS011;60146;52.498;13.462;2023-01-04T00:21:16;13.47;;;5.43;;
72235;SDS011;60146;52.498;13.462;2023-01-04T00:23:42;12.80;;;5.57;;
72235;SDS011;60146;52.498;13.462;2023-01-04T00:26:09;10.70;;;5.20;;
72235;SDS011;60146;52.498;13.462;2023-01-04T00:28:37;11.33;;;5.17;;
72235;SDS011;60146;52.498;13.462;2023-01-04T00:31:05;9.00;;;4.80;;
72235;SDS011;60146;52.498;13.462;2023-01-04T00:33:31;11.70;;;4.80;;
72235;SDS011;60146;52.498;13.462;2023-01-04T00:36:00;11.10;;;5.63;;
72235;SDS011;60146;52.498;13.462;2023-01-04T00:38:25;13.47;;;5.93;;
72235;SDS011;60146;52.498;13.462;2023-01-04T00:40:51;12.03;;;5.50;;
72235;SDS011;60146;52.498;13.462;2023-01-04T00:43:16;12.87;;;5.87;;
72235;SDS011;60146;52.498;13.462;2023-01-04T00:45:41;17.53;;;5.33;;
72235;SDS011;60146;52.498;13.462;2023-01-04T00:48:07;13.77;;;5.40;;
72235;SDS011;60146;52.498;13.462;2023-01-04T00:50:34;11.33;;;4.93;;
72235;SDS011;60146;52.498;13.462;2023-01-04T00:52:59;11.43;;;5.07;;
72235;SDS011;60146;52.498;13.462;2023-01-04T00:55:24;12.47;;;5.23;;
72235;SDS011;60146;52.498;13.462;2023-01-04T00:57:49;11.27;;;5.13;;
72235;SDS011;60146;52.498;13.462;2023-01-04T01:00:15;12.13;;;5.30;;
72235;SDS011;60146;52.498;13.462;2023-01-04T01:02:40;12.03;;;5.17;;
72235;SDS011;60146;52.498;13.462;2023-01-04T01:05:05;13.90;;;5.63;;
72235;SDS011;60146;52.498;13.462;2023-01-04T01:07:31;9.30;;;4.43;;
72235;SDS011;60146;52.498;13.462;2023-01-04T01:09:56;9.93;;;4.90;;
72235;SDS011;60146;52.498;13.462;2023-01-04T01:12:21;9.40;;;4.77;;
72235;SDS011;60146;52.498;13.462;2023-01-04T01:14:46;11.87;;;5.00;;
72235;SDS011;60146;52.498;13.462;2023-01-04T01:17:12;9.93;;;4.90;;
72235;SDS011;60146;52.498;13.462;2023-01-04T01:19:37;10.27;;;4.70;;
72235;SDS011;60146;52.498;13.462;2023-01-04T01:22:02;11.17;;;5.10;;
72235;SDS011;60146;52.498;13.462;2023-01-04T01:24:27;11.10;;;4.40;;
72235;SDS011;60146;52.498;13.462;2023-01-04T01:26:52;9.83;;;4.43;;
72235;SDS011;60146;52.498;13.462;2023-01-04T01:29:18;9.23;;;4.50;;
72235;SDS011;60146;52.498;13.462;2023-01-04T01:31:44;10.93;;;4.13;;
72235;SDS011;60146;52.498;13.462;2023-01-04T01:34:09;8.57;;;3.73;;
72235;SDS011;60146;52.498;13.462;2023-01-04T01:36:34;7.80;;;3.70;;
72235;SDS011;60146;52.498;13.462;2023-01-04T01:39:00;8.60;;;3.83;;
72235;SDS011;60146;52.498;13.462;2023-01-04T01:41:29;6.77;;;3.50;;
72235;SDS011;60146;52.498;13.462;2023-01-04T01:46:32;8.70;;;3.73;;
72235;SDS011;60146;52.498;13.462;2023-01-04T01:49:22;9.93;;;3.73;;
72235;SDS011;60146;52.498;13.462;2023-01-04T01:51:44;8.40;;;3.40;;
72235;SDS011;60146;52.498;13.462;2023-01-04T01:54:12;6.27;;;3.67;;
72235;SDS011;60146;52.498;13.462;2023-01-04T01:56:38;7.27;;;3.67;;
72235;SDS011;60146;52.498;13.462;2023-01-04T01:59:06;8.13;;;3.80;;
72235;SDS011;60146;52.498;13.462;2023-01-04T02:01:33;6.27;;;3.33;;
72235;SDS011;60146;52.498;13.462;2023-01-04T02:03:58;7.47;;;3.67;;
72235;SDS011;60146;52.498;13.462;2023-01-04T02:06:28;8.20;;;3.90;;
72235;SDS011;60146;52.498;13.462;2023-01-04T02:08:55;8.37;;;3.60;;
72235;SDS011;60146;52.498;13.462;2023-01-04T02:11:20;8.93;;;3.70;;
72235;SDS011;60146;52.498;13.462;2023-01-04T02:13:45;7.30;;;3.50;;
72235;SDS011;60146;52.498;13.462;2023-01-04T02:19:01;7.13;;;3.50;;
72235;SDS011;60146;52.498;13.462;2023-01-04T02:22:16;8.27;;;3.77;;
72235;SDS011;60146;52.498;13.462;2023-01-04T02:24:19;6.83;;;3.43;;
72235;SDS011;60146;52.498;13.462;2023-01-04T02:27:05;8.47;;;3.50;;
72235;SDS011;60146;52.498;13.462;2023-01-04T02:32:02;7.63;;;3.73;;
72235;SDS011;60146;52.498;13.462;2023-01-04T02:42:11;9.63;;;3.80;;
72235;SDS011;60146;52.498;13.462;2023-01-04T02:44:40;7.40;;;3.60;;
72235;SDS011;60146;52.498;13.462;2023-01-04T02:47:24;6.33;;;3.00;;
72235;SDS011;60146;52.498;13.462;2023-01-04T02:53:04;11.77;;;3.90;;
72235;SDS011;60146;52.498;13.462;2023-01-04T02:55:32;6.87;;;3.60;;
72235;SDS011;60146;52.498;13.462;2023-01-04T02:58:05;8.90;;;3.60;;
72235;SDS011;60146;52.498;13.462;2023-01-04T03:03:22;10.33;;;3.80;;
72235;SDS011;60146;52.498;13.462;2023-01-04T03:06:15;8.17;;;3.87;;
72235;SDS011;60146;52.498;13.462;2023-01-04T03:11:07;8.97;;;3.77;;
72235;SDS011;60146;52.498;13.462;2023-01-04T03:13:53;10.43;;;3.90;;
72235;SDS011;60146;52.498;13.462;2023-01-04T03:16:22;7.93;;;3.57;;
72235;SDS011;60146;52.498;13.462;2023-01-04T03:18:48;8.63;;;4.10;;
72235;SDS011;60146;52.498;13.462;2023-01-04T03:21:14;10.40;;;3.73;;
72235;SDS011;60146;52.498;13.462;2023-01-04T03:23:41;7.27;;;3.93;;
72235;SDS011;60146;52.498;13.462;2023-01-04T03:29:12;7.40;;;3.67;;
72235;SDS011;60146;52.498;13.462;2023-01-04T03:31:58;7.03;;;3.73;;
72235;SDS011;60146;52.498;13.462;2023-01-04T03:34:44;8.30;;;3.93;;
72235;SDS011;60146;52.498;13.462;2023-01-04T03:37:30;8.97;;;4.13;;
72235;SDS011;60146;52.498;13.462;2023-01-04T03:42:52;7.57;;;4.10;;
72235;SDS011;60146;52.498;13.462;2023-01-04T03:45:45;8.37;;;3.90;;
72235;SDS011;60146;52.498;13.462;2023-01-04T03:48:33;9.43;;;3.80;;
72235;SDS011;60146;52.498;13.462;2023-01-04T03:51:02;8.17;;;3.50;;
72235;SDS011;60146;52.498;13.462;2023-01-04T03:53:28;8.13;;;3.30;;
72235;SDS011;60146;52.498;13.462;2023-01-04T03:55:54;9.47;;;4.17;;
72235;SDS011;60146;52.498;13.462;2023-01-04T03:58:21;8.93;;;3.77;;
72235;SDS011;60146;52.498;13.462;2023-01-04T04:00:46;9.57;;;4.33;;
72235;SDS011;60146;52.498;13.462;2023-01-04T04:03:12;9.87;;;4.00;;
72235;SDS011;60146;52.498;13.462;2023-01-04T04:05:38;10.93;;;4.13;;
72235;SDS011;60146;52.498;13.462;2023-01-04T04:08:22;10.30;;;4.13;;
72235;SDS011;60146;52.498;13.462;2023-01-04T04:11:01;7.83;;;3.60;;
72235;SDS011;60146;52.498;13.462;2023-01-04T04:13:46;8.00;;;4.30;;
72235;SDS011;60146;52.498;13.462;2023-01-04T04:16:11;7.30;;;3.80;;
72235;SDS011;60146;52.498;13.462;2023-01-04T04:18:36;13.30;;;4.50;;
72235;SDS011;60146;52.498;13.462;2023-01-04T04:21:01;6.83;;;3.70;;
72235;SDS011;60146;52.498;13.462;2023-01-04T04:23:26;8.80;;;4.07;;
72235;SDS011;60146;52.498;13.462;2023-01-04T04:25:52;8.80;;;3.73;;
72235;SDS011;60146;52.498;13.462;2023-01-04T04:28:17;8.97;;;3.87;;
72235;SDS011;60146;52.498;13.462;2023-01-04T04:30:42;8.80;;;4.00;;
72235;SDS011;60146;52.498;13.462;2023-01-04T04:33:07;8.30;;;3.63;;
72235;SDS011;60146;52.498;13.462;2023-01-04T04:35:33;8.13;;;3.97;;
72235;SDS011;60146;52.498;13.462;2023-01-04T04:37:58;11.30;;;3.83;;
72235;SDS011;60146;52.498;13.462;2023-01-04T04:40:23;9.07;;;3.87;;
72235;SDS011;60146;52.498;13.462;2023-01-04T04:43:07;7.07;;;3.50;;
72235;SDS011;60146;52.498;13.462;2023-01-04T04:45:33;8.13;;;3.47;;
72235;SDS011;60146;52.498;13.462;2023-01-04T04:47:58;11.53;;;3.97;;
72235;SDS011;60146;52.498;13.462;2023-01-04T04:50:23;11.43;;;4.43;;
72235;SDS011;60146;52.498;13.462;2023-01-04T04:52:48;9.13;;;4.13;;
72235;SDS011;60146;52.498;13.462;2023-01-04T04:55:13;6.73;;;3.43;;
72235;SDS011;60146;52.498;13.462;2023-01-04T04:57:39;8.47;;;4.00;;
72235;SDS011;60146;52.498;13.462;2023-01-04T05:00:04;7.67;;;3.80;;
72235;SDS011;60146;52.498;13.462;2023-01-04T05:02:29;7.00;;;3.83;;
72235;SDS011;60146;52.498;13.462;2023-01-04T05:04:55;10.40;;;3.20;;
72235;SDS011;60146;52.498;13.462;2023-01-04T05:07:20;10.20;;;3.63;;
72235;SDS011;60146;52.498;13.462;2023-01-04T05:09:45;8.23;;;3.70;;
72235;SDS011;60146;52.498;13.462;2023-01-04T05:12:11;8.27;;;3.63;;
72235;SDS011;60146;52.498;13.462;2023-01-04T05:14:55;9.20;;;3.37;;
72235;SDS011;60146;52.498;13.462;2023-01-04T05:17:20;8.70;;;3.30;;
72235;SDS011;60146;52.498;13.462;2023-01-04T05:19:45;7.50;;;3.20;;
72235;SDS011;60146;52.498;13.462;2023-01-04T05:22:10;8.97;;;3.67;;
72235;SDS011;60146;52.498;13.462;2023-01-04T05:24:36;6.87;;;3.07;;
72235;SDS011;60146;52.498;13.462;2023-01-04T05:27:01;6.33;;;3.30;;
72235;SDS011;60146;52.498;13.462;2023-01-04T05:29:26;5.47;;;2.87;;
72235;SDS011;60146;52.498;13.462;2023-01-04T05:32:10;5.97;;;3.00;;
72235;SDS011;60146;52.498;13.462;2023-01-04T05:34:35;8.70;;;2.97;;
72235;SDS011;60146;52.498;13.462;2023-01-04T05:37:00;10.50;;;3.37;;
72235;SDS011;60146;52.498;13.462;2023-01-04T05:39:25;7.33;;;4.20;;
72235;SDS011;60146;52.498;13.462;2023-01-04T05:41:51;5.37;;;3.00;;
72235;SDS011;60146;52.498;13.462;2023-01-04T05:44:34;8.00;;;3.17;;
72235;SDS011;60146;52.498;13.462;2023-01-04T05:47:00;6.60;;;3.00;;
72235;SDS011;60146;52.498;13.462;2023-01-04T05:49:25;6.97;;;3.20;;
72235;SDS011;60146;52.498;13.462;2023-01-04T05:51:50;5.40;;;2.80;;
72235;SDS011;60146;52.498;13.462;2023-01-04T05:54:15;6.10;;;2.90;;
72235;SDS011;60146;52.498;13.462;2023-01-04T05:56:41;4.93;;;2.87;;
72235;SDS011;60146;52.498;13.462;2023-01-04T05:59:06;5.67;;;2.80;;
72235;SDS011;60146;52.498;13.462;2023-01-04T06:01:31;8.13;;;3.47;;
72235;SDS011;60146;52.498;13.462;2023-01-04T06:03:56;6.47;;;2.70;;
72235;SDS011;60146;52.498;13.462;2023-01-04T06:06:22;8.63;;;3.70;;
72235;SDS011;60146;52.498;13.462;2023-01-04T06:08:47;5.97;;;2.80;;
72235;SDS011;60146;52.498;13.462;2023-01-04T06:11:12;7.23;;;3.20;;
72235;SDS011;60146;52.498;13.462;2023-01-04T06:13:37;11.53;;;2.77;;
72235;SDS011;60146;52.498;13.462;2023-01-04T06:16:02;6.67;;;2.97;;
72235;SDS011;60146;52.498;13.462;2023-01-04T06:18:28;6.33;;;3.10;;
72235;SDS011;60146;52.498;13.462;2023-01-04T06:20:53;6.87;;;3.10;;
72235;SDS011;60146;52.498;13.462;2023-01-04T06:23:18;5.00;;;2.80;;
72235;SDS011;60146;52.498;13.462;2023-01-04T06:25:43;7.17;;;2.63;;
72235;SDS011;60146;52.498;13.462;2023-01-04T06:28:08;6.73;;;3.00;;
72235;SDS011;60146;52.498;13.462;2023-01-04T06:30:34;6.47;;;2.83;;
72235;SDS011;60146;52.498;13.462;2023-01-04T06:32:59;5.07;;;2.60;;
72235;SDS011;60146;52.498;13.462;2023-01-04T06:35:24;4.67;;;2.53;;
72235;SDS011;60146;52.498;13.462;2023-01-04T06:37:49;4.80;;;2.90;;
72235;SDS011;60146;52.498;13.462;2023-01-04T06:40:15;5.93;;;2.77;;
72235;SDS011;60146;52.498;13.462;2023-01-04T06:42:40;5.00;;;2.40;;
72235;SDS011;60146;52.498;13.462;2023-01-04T06:45:08;4.70;;;2.47;;
72235;SDS011;60146;52.498;13.462;2023-01-04T06:47:34;4.27;;;2.43;;
72235;SDS011;60146;52.498;13.462;2023-01-04T06:49:59;7.80;;;2.93;;
72235;SDS011;60146;52.498;13.462;2023-01-04T06:52:24;5.63;;;2.40;;
72235;SDS011;60146;52.498;13.462;2023-01-04T06:54:50;4.23;;;2.00;;
72235;SDS011;60146;52.498;13.462;2023-01-04T06:57:15;4.23;;;1.90;;
72235;SDS011;60146;52.498;13.462;2023-01-04T06:59:40;7.60;;;2.07;;
72235;SDS011;60146;52.498;13.462;2023-01-04T07:02:05;6.20;;;2.43;;
72235;SDS011;60146;52.498;13.462;2023-01-04T07:04:31;4.73;;;2.00;;
72235;SDS011;60146;52.498;13.462;2023-01-04T07:06:56;10.70;;;2.07;;
72235;SDS011;60146;52.498;13.462;2023-01-04T07:09:21;4.17;;;2.07;;
72235;SDS011;60146;52.498;13.462;2023-01-04T07:11:47;3.47;;;2.10;;
72235;SDS011;60146;52.498;13.462;2023-01-04T07:14:12;2.53;;;1.60;;
72235;SDS011;60146;52.498;13.462;2023-01-04T07:16:37;6.23;;;1.90;;
72235;SDS011;60146;52.498;13.462;2023-01-04T07:19:03;4.70;;;1.90;;
72235;SDS011;60146;52.498;13.462;2023-01-04T07:21:28;3.00;;;1.57;;
72235;SDS011;60146;52.498;13.462;2023-01-04T07:23:53;3.17;;;1.40;;
72235;SDS011;60146;52.498;13.462;2023-01-04T07:26:19;5.17;;;1.73;;
72235;SDS011;60146;52.498;13.462;2023-01-04T07:28:44;3.40;;;1.90;;
72235;SDS011;60146;52.498;13.462;2023-01-04T07:31:28;4.93;;;1.60;;
72235;SDS011;60146;52.498;13.462;2023-01-04T07:33:53;4.57;;;1.73;;
72235;SDS011;60146;52.498;13.462;2023-01-04T07:36:18;5.27;;;1.70;;
72235;SDS011;60146;52.498;13.462;2023-01-04T07:38:44;3.30;;;1.90;;
72235;SDS011;60146;52.498;13.462;2023-01-04T07:41:12;3.07;;;1.77;;
72235;SDS011;60146;52.498;13.462;2023-01-04T07:43:40;8.47;;;1.87;;
72235;SDS011;60146;52.498;13.462;2023-01-04T07:46:05;4.53;;;1.80;;
72235;SDS011;60146;52.498;13.462;2023-01-04T07:48:31;4.30;;;1.90;;
72235;SDS011;60146;52.498;13.462;2023-01-04T07:50:56;3.47;;;1.70;;
72235;SDS011;60146;52.498;13.462;2023-01-04T07:53:21;4.40;;;2.00;;
72235;SDS011;60146;52.498;13.462;2023-01-04T07:55:46;4.33;;;1.87;;
72235;SDS011;60146;52.498;13.462;2023-01-04T07:58:11;6.63;;;2.00;;
72235;SDS011;60146;52.498;13.462;2023-01-04T08:00:37;4.43;;;1.93;;
72235;SDS011;60146;52.498;13.462;2023-01-04T08:03:02;5.37;;;2.13;;
72235;SDS011;60146;52.498;13.462;2023-01-04T08:05:30;4.90;;;2.07;;
72235;SDS011;60146;52.498;13.462;2023-01-04T08:10:23;3.27;;;1.80;;
72235;SDS011;60146;52.498;13.462;2023-01-04T08:12:48;6.03;;;2.30;;
72235;SDS011;60146;52.498;13.462;2023-01-04T08:15:14;4.60;;;1.80;;
72235;SDS011;60146;52.498;13.462;2023-01-04T08:17:39;7.53;;;2.03;;
72235;SDS011;60146;52.498;13.462;2023-01-04T08:20:05;4.80;;;1.90;;
72235;SDS011;60146;52.498;13.462;2023-01-04T08:22:31;6.23;;;2.17;;
72235;SDS011;60146;52.498;13.462;2023-01-04T08:24:56;2.80;;;1.93;;
72235;SDS011;60146;52.498;13.462;2023-01-04T08:27:21;5.60;;;2.40;;
72235;SDS011;60146;52.498;13.462;2023-01-04T08:29:47;5.70;;;2.20;;
72235;SDS011;60146;52.498;13.462;2023-01-04T08:32:12;3.60;;;2.03;;
72235;SDS011;60146;52.498;13.462;2023-01-04T08:34:37;4.60;;;2.00;;
72235;SDS011;60146;52.498;13.462;2023-01-04T08:37:02;7.20;;;2.43;;
72235;SDS011;60146;52.498;13.462;2023-01-04T08:39:27;3.57;;;2.10;;
72235;SDS011;60146;52.498;13.462;2023-01-04T08:41:57;6.17;;;2.53;;
72235;SDS011;60146;52.498;13.462;2023-01-04T08:44:23;7.27;;;2.50;;
72235;SDS011;60146;52.498;13.462;2023-01-04T08:46:49;6.37;;;2.10;;
72235;SDS011;60146;52.498;13.462;2023-01-04T08:49:14;5.17;;;2.23;;
72235;SDS011;60146;52.498;13.462;2023-01-04T08:51:40;4.87;;;2.30;;
72235;SDS011;60146;52.498;13.462;2023-01-04T08:54:06;5.73;;;2.40;;
72235;SDS011;60146;52.498;13.462;2023-01-04T08:56:31;5.77;;;2.63;;
72235;SDS011;60146;52.498;13.462;2023-01-04T08:58:56;7.33;;;2.67;;
72235;SDS011;60146;52.498;13.462;2023-01-04T09:01:22;5.50;;;2.83;;
72235;SDS011;60146;52.498;13.462;2023-01-04T09:03:47;5.43;;;1.93;;
72235;SDS011;60146;52.498;13.462;2023-01-04T09:06:13;6.03;;;2.63;;
72235;SDS011;60146;52.498;13.462;2023-01-04T09:08:39;6.77;;;2.60;;
72235;SDS011;60146;52.498;13.462;2023-01-04T09:11:05;6.07;;;3.07;;
72235;SDS011;60146;52.498;13.462;2023-01-04T09:13:32;5.57;;;2.53;;
72235;SDS011;60146;52.498;13.462;2023-01-04T09:16:00;9.83;;;3.10;;
72235;SDS011;60146;52.498;13.462;2023-01-04T09:18:26;6.90;;;3.10;;
72235;SDS011;60146;52.498;13.462;2023-01-04T09:20:51;7.17;;;2.93;;
72235;SDS011;60146;52.498;13.462;2023-01-04T09:23:16;8.30;;;3.10;;
72235;SDS011;60146;52.498;13.462;2023-01-04T09:25:42;6.57;;;3.10;;
72235;SDS011;60146;52.498;13.462;2023-01-04T09:28:07;7.73;;;3.10;;
72235;SDS011;60146;52.498;13.462;2023-01-04T09:30:32;8.47;;;3.20;;
72235;SDS011;60146;52.498;13.462;2023-01-04T09:32:57;7.67;;;3.23;;
72235;SDS011;60146;52.498;13.462;2023-01-04T09:35:22;7.97;;;3.07;;
72235;SDS011;60146;52.498;13.462;2023-01-04T09:37:48;8.50;;;3.00;;
72235;SDS011;60146;52.498;13.462;2023-01-04T09:40:17;11.23;;;3.30;;
72235;SDS011;60146;52.498;13.462;2023-01-04T09:42:44;5.87;;;2.83;;
72235;SDS011;60146;52.498;13.462;2023-01-04T09:50:11;8.73;;;3.17;;
72235;SDS011;60146;52.498;13.462;2023-01-04T09:52:42;7.07;;;2.80;;
72235;SDS011;60146;52.498;13.462;2023-01-04T09:55:21;6.63;;;2.93;;
72235;SDS011;60146;52.498;13.462;2023-01-04T09:57:48;7.83;;;3.60;;
72235;SDS011;60146;52.498;13.462;2023-01-04T10:00:19;7.87;;;3.30;;
72235;SDS011;60146;52.498;13.462;2023-01-04T10:02:46;8.43;;;3.45;;
72235;SDS011;60146;52.498;13.462;2023-01-04T10:05:21;6.97;;;3.57;;
72235;SDS011;60146;52.498;13.462;2023-01-04T10:07:47;7.00;;;3.70;;
72235;SDS011;60146;52.498;13.462;2023-01-04T10:10:16;7.40;;;3.27;;
72235;SDS011;60146;52.498;13.462;2023-01-04T10:15:15;9.87;;;3.10;;
72235;SDS011;60146;52.498;13.462;2023-01-04T10:35:51;8.05;;;2.97;;
72235;SDS011;60146;52.498;13.462;2023-01-04T10:38:21;8.83;;;3.70;;
72235;SDS011;60146;52.498;13.462;2023-01-04T10:40:47;8.07;;;3.10;;
72235;SDS011;60146;52.498;13.462;2023-01-04T10:43:16;12.20;;;3.40;;
72235;SDS011;60146;52.498;13.462;2023-01-04T10:45:45;8.73;;;3.27;;
72235;SDS011;60146;52.498;13.462;2023-01-04T10:50:43;8.87;;;3.53;;
72235;SDS011;60146;52.498;13.462;2023-01-04T10:58:09;9.23;;;3.23;;
72235;SDS011;60146;52.498;13.462;2023-01-04T11:00:44;11.70;;;3.80;;
72235;SDS011;60146;52.498;13.462;2023-01-04T11:03:24;7.47;;;3.37;;
72235;SDS011;60146;52.498;13.462;2023-01-04T11:05:56;10.53;;;3.80;;
72235;SDS011;60146;52.498;13.462;2023-01-04T11:09:07;8.47;;;3.53;;
72235;SDS011;60146;52.498;13.462;2023-01-04T11:11:15;10.30;;;3.80;;
72235;SDS011;60146;52.498;13.462;2023-01-04T11:13:42;11.63;;;3.93;;
72235;SDS011;60146;52.498;13.462;2023-01-04T11:16:07;7.37;;;3.40;;
72235;SDS011;60146;52.498;13.462;2023-01-04T11:18:32;9.83;;;4.00;;
72235;SDS011;60146;52.498;13.462;2023-01-04T11:24:15;7.83;;;3.37;;
72235;SDS011;60146;52.498;13.462;2023-01-04T11:26:41;8.10;;;3.47;;
72235;SDS011;60146;52.498;13.462;2023-01-04T11:31:46;10.53;;;4.00;;
72235;SDS011;60146;52.498;13.462;2023-01-04T11:34:12;8.05;;;3.35;;
72235;SDS011;60146;52.498;13.462;2023-01-04T11:36:41;6.73;;;3.13;;
72235;SDS011;60146;52.498;13.462;2023-01-04T11:39:19;6.33;;;3.00;;
72235;SDS011;60146;52.498;13.462;2023-01-04T11:41:54;6.80;;;3.10;;
72235;SDS011;60146;52.498;13.462;2023-01-04T11:44:23;5.30;;;2.63;;
72235;SDS011;60146;52.498;13.462;2023-01-04T11:47:10;7.87;;;3.13;;
72235;SDS011;60146;52.498;13.462;2023-01-04T11:49:40;5.77;;;3.00;;
72235;SDS011;60146;52.498;13.462;2023-01-04T11:52:07;5.70;;;3.03;;
72235;SDS011;60146;52.498;13.462;2023-01-04T11:54:51;5.87;;;2.47;;
72235;SDS011;60146;52.498;13.462;2023-01-04T11:57:17;6.73;;;2.87;;
72235;SDS011;60146;52.498;13.462;2023-01-04T11:59:42;9.07;;;2.77;;
72235;SDS011;60146;52.498;13.462;2023-01-04T12:04:39;7.17;;;3.13;;
72235;SDS011;60146;52.498;13.462;2023-01-04T12:07:06;4.77;;;2.47;;
72235;SDS011;60146;52.498;13.462;2023-01-04T12:09:35;4.77;;;2.13;;
72235;SDS011;60146;52.498;13.462;2023-01-04T12:12:00;7.23;;;2.60;;
72235;SDS011;60146;52.498;13.462;2023-01-04T12:14:26;4.70;;;2.50;;
72235;SDS011;60146;52.498;13.462;2023-01-04T12:19:31;7.80;;;2.67;;
72235;SDS011;60146;52.498;13.462;2023-01-04T12:21:58;6.13;;;2.63;;
72235;SDS011;60146;52.498;13.462;2023-01-04T12:24:25;6.63;;;2.43;;
72235;SDS011;60146;52.498;13.462;2023-01-04T12:26:51;5.83;;;2.47;;
72235;SDS011;60146;52.498;13.462;2023-01-04T12:31:46;7.07;;;2.30;;
72235;SDS011;60146;52.498;13.462;2023-01-04T12:46:50;3.70;;;2.10;;
72235;SDS011;60146;52.498;13.462;2023-01-04T12:49:47;4.93;;;2.50;;
72235;SDS011;60146;52.498;13.462;2023-01-04T12:54:52;3.13;;;2.10;;
72235;SDS011;60146;52.498;13.462;2023-01-04T12:57:25;4.03;;;2.00;;
72235;SDS011;60146;52.498;13.462;2023-01-04T13:02:27;5.10;;;2.53;;
72235;SDS011;60146;52.498;13.462;2023-01-04T13:04:56;4.73;;;2.13;;
72235;SDS011;60146;52.498;13.462;2023-01-04T13:07:25;4.95;;;2.17;;
72235;SDS011;60146;52.498;13.462;2023-01-04T13:09:53;6.00;;;2.53;;
72235;SDS011;60146;52.498;13.462;2023-01-04T13:15:11;6.33;;;2.57;;
72235;SDS011;60146;52.498;13.462;2023-01-04T13:17:38;6.03;;;2.43;;
72235;SDS011;60146;52.498;13.462;2023-01-04T13:20:37;3.47;;;2.10;;
72235;SDS011;60146;52.498;13.462;2023-01-04T13:22:56;5.50;;;2.43;;
72235;SDS011;60146;52.498;13.462;2023-01-04T13:25:23;5.33;;;2.80;;
72235;SDS011;60146;52.498;13.462;2023-01-04T13:28:02;7.07;;;3.00;;
72235;SDS011;60146;52.498;13.462;2023-01-04T13:30:34;5.43;;;2.90;;
72235;SDS011;60146;52.498;13.462;2023-01-04T13:33:07;7.63;;;3.40;;
72235;SDS011;60146;52.498;13.462;2023-01-04T13:35:32;7.40;;;3.20;;
72235;SDS011;60146;52.498;13.462;2023-01-04T13:37:58;5.13;;;2.70;;
72235;SDS011;60146;52.498;13.462;2023-01-04T13:40:25;6.60;;;2.90;;
72235;SDS011;60146;52.498;13.462;2023-01-04T13:43:01;7.83;;;2.70;;
72235;SDS011;60146;52.498;13.462;2023-01-04T13:47:57;4.43;;;2.60;;
72235;SDS011;60146;52.498;13.462;2023-01-04T13:50:42;4.77;;;2.63;;
72235;SDS011;60146;52.498;13.462;2023-01-04T13:53:30;5.57;;;2.77;;
72235;SDS011;60146;52.498;13.462;2023-01-04T13:56:00;6.87;;;2.70;;
72235;SDS011;60146;52.498;13.462;2023-01-04T13:58:28;5.78;;;2.92;;
72235;SDS011;60146;52.498;13.462;2023-01-04T14:00:55;3.80;;;2.57;;
72235;SDS011;60146;52.498;13.462;2023-01-04T14:03:26;6.10;;;2.80;;
72235;SDS011;60146;52.498;13.462;2023-01-04T14:05:53;5.40;;;2.70;;
72235;SDS011;60146;52.498;13.462;2023-01-04T14:10:51;6.60;;;3.03;;
72235;SDS011;60146;52.498;13.462;2023-01-04T14:13:16;5.17;;;2.83;;
72235;SDS011;60146;52.498;13.462;2023-01-04T14:15:43;4.93;;;2.80;;
72235;SDS011;60146;52.498;13.462;2023-01-04T14:18:24;8.33;;;2.87;;
72235;SDS011;60146;52.498;13.462;2023-01-04T14:20:50;5.37;;;3.00;;
72235;SDS011;60146;52.498;13.462;2023-01-04T14:23:31;5.40;;;2.73;;
72235;SDS011;60146;52.498;13.462;2023-01-04T14:25:57;5.33;;;2.57;;
72235;SDS011;60146;52.498;13.462;2023-01-04T14:28:24;5.60;;;3.00;;
72235;SDS011;60146;52.498;13.462;2023-01-04T14:33:20;7.93;;;2.90;;
72235;SDS011;60146;52.498;13.462;2023-01-04T14:38:16;5.53;;;2.72;;
72235;SDS011;60146;52.498;13.462;2023-01-04T14:40:42;5.33;;;2.87;;
72235;SDS011;60146;52.498;13.462;2023-01-04T14:45:52;5.30;;;2.47;;
72235;SDS011;60146;52.498;13.462;2023-01-04T14:48:17;6.77;;;2.97;;
72235;SDS011;60146;52.498;13.462;2023-01-04T14:50:42;4.57;;;2.50;;
72235;SDS011;60146;52.498;13.462;2023-01-04T14:53:08;5.07;;;2.30;;
72235;SDS011;60146;52.498;13.462;2023-01-04T14:55:34;5.47;;;2.47;;
72235;SDS011;60146;52.498;13.462;2023-01-04T14:57:59;3.70;;;2.63;;
72235;SDS011;60146;52.498;13.462;2023-01-04T15:00:25;5.50;;;2.40;;
72235;SDS011;60146;52.498;13.462;2023-01-04T15:02:50;5.83;;;2.20;;
72235;SDS011;60146;52.498;13.462;2023-01-04T15:05:15;4.30;;;2.23;;
72235;SDS011;60146;52.498;13.462;2023-01-04T15:07:43;3.97;;;2.00;;
72235;SDS011;60146;52.498;13.462;2023-01-04T15:10:19;4.03;;;1.73;;
72235;SDS011;60146;52.498;13.462;2023-01-04T15:12:45;4.77;;;2.00;;
72235;SDS011;60146;52.498;13.462;2023-01-04T15:15:10;5.10;;;2.03;;
72235;SDS011;60146;52.498;13.462;2023-01-04T15:17:36;3.57;;;2.10;;
72235;SDS011;60146;52.498;13.462;2023-01-04T15:20:01;5.87;;;2.30;;
72235;SDS011;60146;52.498;13.462;2023-01-04T15:22:26;3.97;;;2.03;;
72235;SDS011;60146;52.498;13.462;2023-01-04T15:24:51;3.93;;;2.10;;
72235;SDS011;60146;52.498;13.462;2023-01-04T15:27:17;3.10;;;1.80;;
72235;SDS011;60146;52.498;13.462;2023-01-04T15:29:45;3.13;;;1.80;;
72235;SDS011;60146;52.498;13.462;2023-01-04T15:32:10;3.17;;;1.73;;
72235;SDS011;60146;52.498;13.462;2023-01-04T15:34:35;2.53;;;1.60;;
72235;SDS011;60146;52.498;13.462;2023-01-04T15:37:01;4.07;;;1.90;;
72235;SDS011;60146;52.498;13.462;2023-01-04T15:39:26;3.20;;;1.80;;
72235;SDS011;60146;52.498;13.462;2023-01-04T15:41:51;2.63;;;1.50;;
72235;SDS011;60146;52.498;13.462;2023-01-04T15:44:35;3.40;;;1.70;;
72235;SDS011;60146;52.498;13.462;2023-01-04T15:47:00;4.43;;;1.80;;
72235;SDS011;60146;52.498;13.462;2023-01-04T15:49:27;2.50;;;1.57;;
72235;SDS011;60146;52.498;13.462;2023-01-04T15:51:52;3.33;;;1.77;;
72235;SDS011;60146;52.498;13.462;2023-01-04T15:54:17;4.07;;;1.80;;
72235;SDS011;60146;52.498;13.462;2023-01-04T15:56:45;1.83;;;1.50;;
72235;SDS011;60146;52.498;13.462;2023-01-04T15:59:10;3.03;;;1.70;;
72235;SDS011;60146;52.498;13.462;2023-01-04T16:01:37;1.87;;;1.37;;
72235;SDS011;60146;52.498;13.462;2023-01-04T16:04:04;2.57;;;1.60;;
72235;SDS011;60146;52.498;13.462;2023-01-04T16:06:29;2.83;;;1.80;;
72235;SDS011;60146;52.498;13.462;2023-01-04T16:08:54;1.50;;;1.37;;
72235;SDS011;60146;52.498;13.462;2023-01-04T16:11:22;4.80;;;1.70;;
72235;SDS011;60146;52.498;13.462;2023-01-04T16:13:49;1.97;;;1.13;;
72235;SDS011;60146;52.498;13.462;2023-01-04T16:16:14;2.43;;;1.20;;
72235;SDS011;60146;52.498;13.462;2023-01-04T16:18:43;4.73;;;1.60;;
72235;SDS011;60146;52.498;13.462;2023-01-04T16:21:09;2.90;;;1.40;;
72235;SDS011;60146;52.498;13.462;2023-01-04T16:23:35;4.00;;;1.37;;
72235;SDS011;60146;52.498;13.462;2023-01-04T16:26:07;2.03;;;1.40;;
72235;SDS011;60146;52.498;13.462;2023-01-04T16:28:33;3.57;;;1.40;;
72235;SDS011;60146;52.498;13.462;2023-01-04T16:30:59;2.13;;;1.50;;